Time;durP1;ratioP1;P1;durP2;ratioP2;P2;SDS_P1;SDS_P2;PMS_P1;PMS_P2;Temp;Humidity;BMP_temperature;BMP_pressure;BME280_temperature;BME280_humidity;BME280_pressure;Samples;Min_cycle;Max_cycle;Signal;HPM_P1;HPM_P2
2021/12/19 00:00:58;;;;;;;12.73;6.03;;;;;;;;;;5018608;28;20197;-71
2021/12/19 00:03:48;;;;;;;11.87;6.77;;;;;;;;;;5015073;28;20173;-71
2021/12/19 00:08:58;;;;;;;14.03;6.67;;;;;;;;;;5021905;28;20549;-71
2021/12/19 00:11:25;;;;;;;16.23;7.83;;;;;;;;;;5012808;28;20206;-72
2021/12/19 00:13:50;;;;;;;13.97;6.83;;;;;;;;;;5014748;28;20206;-71
2021/12/19 00:16:16;;;;;;;15.03;7.03;;;;;;;;;;5017585;28;20797;-72
2021/12/19 00:18:43;;;;;;;11.63;6.43;;;;;;;;;;5019109;28;20202;-71
2021/12/19 00:21:10;;;;;;;13.50;7.60;;;;;;;;;;5018462;28;20323;-72
2021/12/19 00:23:36;;;;;;;19.23;8.20;;;;;;;;;;5012745;28;20186;-72
2021/12/19 00:26:01;;;;;;;16.17;7.67;;;;;;;;;;5010358;28;20174;-73
2021/12/19 00:28:26;;;;;;;13.77;6.47;;;;;;;;;;5014281;28;20197;-71
2021/12/19 00:30:51;;;;;;;11.87;6.00;;;;;;;;;;5014126;28;20201;-71
2021/12/19 00:33:16;;;;;;;14.43;5.77;;;;;;;;;;5014009;28;20179;-71
2021/12/19 00:35:42;;;;;;;10.43;5.80;;;;;;;;;;5021080;28;20259;-74
2021/12/19 00:38:07;;;;;;;12.70;6.13;;;;;;;;;;5015191;28;20261;-75
2021/12/19 00:40:37;;;;;;;13.93;5.63;;;;;;;;;;5013104;28;20209;-75
2021/12/19 00:43:05;;;;;;;14.87;5.50;;;;;;;;;;5013500;28;20188;-74
2021/12/19 00:45:33;;;;;;;10.87;5.57;;;;;;;;;;5012545;28;20262;-72
2021/12/19 00:47:59;;;;;;;8.73;4.80;;;;;;;;;;5016148;28;20199;-75
2021/12/19 00:50:25;;;;;;;12.33;4.93;;;;;;;;;;5023897;22;20277;-73
2021/12/19 00:52:51;;;;;;;9.73;4.77;;;;;;;;;;4996130;28;20691;-73
2021/12/19 00:55:17;;;;;;;9.83;5.20;;;;;;;;;;4994045;28;20198;-72
2021/12/19 00:57:43;;;;;;;11.17;5.10;;;;;;;;;;4994977;28;20232;-73
2021/12/19 01:00:09;;;;;;;10.60;5.03;;;;;;;;;;4993871;28;20214;-73
2021/12/19 01:02:35;;;;;;;10.50;5.73;;;;;;;;;;4996188;28;20189;-72
2021/12/19 01:05:00;;;;;;;8.90;5.13;;;;;;;;;;5000984;28;20648;-73
2021/12/19 01:07:25;;;;;;;10.47;6.07;;;;;;;;;;4996020;28;20196;-74
2021/12/19 01:09:50;;;;;;;13.67;6.60;;;;;;;;;;4995671;28;20233;-73
2021/12/19 01:12:16;;;;;;;11.77;5.83;;;;;;;;;;4995133;28;20287;-72
2021/12/19 01:14:41;;;;;;;10.23;5.50;;;;;;;;;;4992330;28;20191;-73
2021/12/19 01:17:08;;;;;;;9.97;5.27;;;;;;;;;;4995666;28;20194;-73
2021/12/19 01:19:33;;;;;;;10.67;4.87;;;;;;;;;;4998892;28;20651;-75
2021/12/19 01:21:58;;;;;;;11.63;5.57;;;;;;;;;;4996768;28;20210;-73
2021/12/19 01:24:23;;;;;;;11.50;5.90;;;;;;;;;;4998248;28;20187;-73
2021/12/19 01:26:48;;;;;;;9.40;5.63;;;;;;;;;;4997971;28;20187;-73
2021/12/19 01:29:14;;;;;;;9.80;5.87;;;;;;;;;;4995236;28;20195;-73
2021/12/19 01:31:39;;;;;;;10.70;5.50;;;;;;;;;;4995657;28;20203;-74
2021/12/19 01:34:04;;;;;;;11.23;6.23;;;;;;;;;;4995276;28;20182;-74
2021/12/19 01:36:30;;;;;;;13.83;5.70;;;;;;;;;;4992648;28;20179;-73
2021/12/19 01:38:55;;;;;;;11.97;5.97;;;;;;;;;;4994022;28;20198;-73
2021/12/19 01:41:20;;;;;;;11.47;5.70;;;;;;;;;;4994692;28;20563;-72
2021/12/19 01:43:45;;;;;;;10.40;5.90;;;;;;;;;;4993997;28;20723;-72
2021/12/19 01:46:11;;;;;;;14.27;5.10;;;;;;;;;;4994367;28;20175;-73
2021/12/19 01:48:36;;;;;;;11.13;5.30;;;;;;;;;;4996730;28;20565;-73
2021/12/19 01:51:02;;;;;;;13.30;5.63;;;;;;;;;;4995848;28;20226;-72
2021/12/19 01:53:28;;;;;;;8.30;4.50;;;;;;;;;;5007214;28;20198;-73
2021/12/19 01:55:53;;;;;;;8.33;4.47;;;;;;;;;;4995812;28;20581;-72
2021/12/19 01:58:19;;;;;;;9.20;4.53;;;;;;;;;;4993921;28;20274;-73
2021/12/19 02:00:46;;;;;;;9.30;4.70;;;;;;;;;;4995422;28;20771;-72
2021/12/19 02:03:12;;;;;;;6.63;4.30;;;;;;;;;;4992373;28;20690;-74
2021/12/19 02:05:37;;;;;;;7.87;4.17;;;;;;;;;;4998742;28;20166;-73
2021/12/19 02:08:03;;;;;;;5.70;3.67;;;;;;;;;;4998350;28;20244;-71
2021/12/19 02:10:30;;;;;;;8.83;4.87;;;;;;;;;;4995815;28;20210;-73
2021/12/19 02:12:56;;;;;;;6.67;3.57;;;;;;;;;;4994239;28;20187;-72
2021/12/19 02:15:22;;;;;;;5.50;3.23;;;;;;;;;;4992230;28;20248;-73
2021/12/19 02:17:49;;;;;;;8.50;3.73;;;;;;;;;;4996530;28;20254;-73
2021/12/19 02:20:15;;;;;;;8.10;3.67;;;;;;;;;;4994800;28;20956;-73
2021/12/19 02:22:41;;;;;;;6.47;3.20;;;;;;;;;;5010335;28;20190;-73
2021/12/19 02:25:07;;;;;;;8.47;4.03;;;;;;;;;;4994377;28;20190;-73
2021/12/19 02:27:32;;;;;;;8.43;3.60;;;;;;;;;;4991906;28;20812;-73
2021/12/19 02:29:58;;;;;;;6.63;3.27;;;;;;;;;;4996038;28;20194;-73
2021/12/19 02:32:24;;;;;;;7.03;3.47;;;;;;;;;;4994392;28;20210;-73
2021/12/19 02:34:51;;;;;;;5.90;3.20;;;;;;;;;;4993938;28;20189;-73
2021/12/19 02:38:17;;;;;;;6.43;3.20;;;;;;;;;;4994697;28;20684;-73
2021/12/19 02:48:13;;;;;;;7.37;4.27;;;;;;;;;;4995219;28;20190;-73
2021/12/19 02:50:46;;;;;;;7.87;3.60;;;;;;;;;;4994632;28;20301;-73
2021/12/19 02:53:12;;;;;;;9.67;4.60;;;;;;;;;;4995129;28;20543;-75
2021/12/19 02:55:37;;;;;;;7.20;3.20;;;;;;;;;;4994716;28;20186;-74
2021/12/19 02:58:02;;;;;;;6.10;2.87;;;;;;;;;;4993842;28;20178;-74
2021/12/19 03:00:28;;;;;;;6.53;3.50;;;;;;;;;;4997153;28;20201;-74
2021/12/19 03:02:53;;;;;;;6.83;3.00;;;;;;;;;;4998250;28;20249;-74
2021/12/19 03:05:19;;;;;;;8.00;3.67;;;;;;;;;;5000867;28;20703;-72
2021/12/19 03:07:45;;;;;;;7.60;4.00;;;;;;;;;;4997847;28;20780;-73
2021/12/19 03:10:39;;;;;;;6.63;4.53;;;;;;;;;;4999112;28;20326;-74
2021/12/19 03:13:10;;;;;;;8.33;4.00;;;;;;;;;;4997928;28;21278;-74
2021/12/19 03:18:23;;;;;;;7.40;4.00;;;;;;;;;;4998691;28;20757;-73
2021/12/19 03:20:48;;;;;;;7.20;3.30;;;;;;;;;;4996805;28;20200;-73
2021/12/19 03:23:14;;;;;;;6.93;4.10;;;;;;;;;;4994214;28;20179;-73
2021/12/19 03:25:39;;;;;;;7.40;3.30;;;;;;;;;;4996210;28;20230;-73
2021/12/19 03:28:06;;;;;;;5.00;3.10;;;;;;;;;;4995485;28;20178;-73
2021/12/19 03:30:31;;;;;;;7.33;3.03;;;;;;;;;;5011633;28;20285;-72
2021/12/19 03:32:57;;;;;;;5.50;2.67;;;;;;;;;;4996030;28;20228;-72
2021/12/19 03:35:23;;;;;;;4.90;2.80;;;;;;;;;;4996459;28;20186;-74
2021/12/19 03:37:50;;;;;;;3.83;2.37;;;;;;;;;;4995054;28;20187;-73
2021/12/19 03:40:22;;;;;;;4.43;2.47;;;;;;;;;;5002517;28;20703;-74
2021/12/19 03:42:49;;;;;;;6.93;2.87;;;;;;;;;;4996139;28;20179;-74
2021/12/19 03:45:17;;;;;;;5.47;2.27;;;;;;;;;;4996735;28;20270;-72
2021/12/19 03:47:42;;;;;;;4.43;2.53;;;;;;;;;;4988241;28;20175;-72
2021/12/19 03:50:08;;;;;;;6.67;2.47;;;;;;;;;;4997446;28;20222;-73
2021/12/19 03:52:34;;;;;;;6.23;2.57;;;;;;;;;;4995910;28;20227;-72
2021/12/19 03:54:59;;;;;;;5.20;2.67;;;;;;;;;;5012501;28;20454;-74
2021/12/19 03:57:24;;;;;;;7.77;2.73;;;;;;;;;;4997030;28;20552;-73
2021/12/19 03:59:49;;;;;;;8.50;3.50;;;;;;;;;;4997338;28;20205;-74
2021/12/19 04:02:23;;;;;;;6.27;2.80;;;;;;;;;;5000420;28;20229;-74
2021/12/19 04:04:48;;;;;;;5.83;3.33;;;;;;;;;;4998012;28;20211;-74
2021/12/19 04:07:14;;;;;;;5.23;2.97;;;;;;;;;;4993290;28;20262;-73
2021/12/19 04:09:39;;;;;;;4.40;2.80;;;;;;;;;;4995755;28;20671;-74
2021/12/19 04:12:04;;;;;;;4.97;2.90;;;;;;;;;;4997638;28;20260;-74
2021/12/19 04:14:29;;;;;;;4.50;2.93;;;;;;;;;;4996351;28;20241;-72
2021/12/19 04:16:55;;;;;;;5.87;3.73;;;;;;;;;;4995743;28;20276;-74
2021/12/19 04:19:20;;;;;;;5.20;3.17;;;;;;;;;;4998526;28;20207;-73
2021/12/19 04:21:46;;;;;;;6.93;3.60;;;;;;;;;;5001134;28;20278;-73
2021/12/19 04:24:11;;;;;;;4.33;2.83;;;;;;;;;;5000633;28;20191;-74
2021/12/19 04:26:36;;;;;;;6.27;3.20;;;;;;;;;;4998293;28;20726;-74
2021/12/19 04:29:01;;;;;;;5.47;3.17;;;;;;;;;;4993806;28;20242;-73
2021/12/19 04:31:26;;;;;;;5.20;2.70;;;;;;;;;;4996649;28;20312;-74
2021/12/19 04:33:52;;;;;;;5.33;3.13;;;;;;;;;;4995633;28;20186;-75
2021/12/19 04:36:24;;;;;;;5.23;3.07;;;;;;;;;;4996955;28;20198;-73
2021/12/19 04:39:20;;;;;;;5.67;3.20;;;;;;;;;;4996158;28;20206;-72
2021/12/19 04:54:51;;;;;;;5.50;2.40;;;;;;;;;;4991875;28;20563;-73
2021/12/19 05:00:08;;;;;;;3.50;2.07;;;;;;;;;;4992744;28;20212;-73
2021/12/19 05:02:44;;;;;;;4.13;2.53;;;;;;;;;;4996445;28;20213;-73
2021/12/19 05:16:02;;;;;;;5.57;2.20;;;;;;;;;;4996688;28;20201;-73
2021/12/19 05:18:31;;;;;;;3.60;2.03;;;;;;;;;;4996121;28;20184;-72
2021/12/19 05:21:04;;;;;;;6.43;2.60;;;;;;;;;;4994054;28;20883;-73
2021/12/19 05:25:54;;;;;;;5.07;2.87;;;;;;;;;;4994194;28;20186;-73
2021/12/19 05:28:20;;;;;;;5.73;3.27;;;;;;;;;;4994857;28;20183;-73
2021/12/19 05:30:45;;;;;;;5.93;2.90;;;;;;;;;;5000403;28;20214;-74
2021/12/19 05:33:11;;;;;;;6.40;3.30;;;;;;;;;;4991057;28;20215;-73
2021/12/19 05:36:10;;;;;;;6.20;3.40;;;;;;;;;;4993915;28;20224;-74
2021/12/19 05:46:47;;;;;;;6.13;3.40;;;;;;;;;;4993239;28;20173;-75
2021/12/19 05:49:12;;;;;;;5.30;2.80;;;;;;;;;;4999978;28;20555;-73
2021/12/19 05:51:38;;;;;;;6.10;2.40;;;;;;;;;;4995942;28;20218;-74
2021/12/19 05:54:04;;;;;;;4.80;2.53;;;;;;;;;;5001546;28;20186;-75
2021/12/19 05:56:29;;;;;;;5.50;2.50;;;;;;;;;;5018385;28;20182;-73
2021/12/19 05:58:55;;;;;;;5.10;2.83;;;;;;;;;;5000579;28;20209;-72
2021/12/19 06:01:20;;;;;;;4.03;2.47;;;;;;;;;;4995970;28;20193;-72
2021/12/19 06:03:45;;;;;;;3.67;1.83;;;;;;;;;;4994163;28;20188;-72
2021/12/19 06:06:11;;;;;;;2.77;1.63;;;;;;;;;;4997775;28;20272;-74
2021/12/19 06:08:36;;;;;;;3.03;1.80;;;;;;;;;;4995799;28;20191;-74
2021/12/19 06:11:01;;;;;;;3.93;2.37;;;;;;;;;;4994553;28;20855;-74
2021/12/19 06:13:26;;;;;;;4.33;2.10;;;;;;;;;;4992955;28;20189;-73
2021/12/19 06:15:54;;;;;;;4.40;1.60;;;;;;;;;;4993289;28;20183;-72
2021/12/19 06:18:19;;;;;;;2.37;1.33;;;;;;;;;;4999707;28;20608;-72
2021/12/19 06:20:45;;;;;;;2.40;1.20;;;;;;;;;;4999191;28;20655;-72
2021/12/19 06:23:10;;;;;;;5.20;1.83;;;;;;;;;;4994082;28;20256;-72
2021/12/19 06:25:35;;;;;;;4.20;1.87;;;;;;;;;;4994283;28;20174;-74
2021/12/19 06:28:00;;;;;;;2.90;1.47;;;;;;;;;;4995863;28;20228;-75
2021/12/19 06:30:27;;;;;;;2.63;1.50;;;;;;;;;;4995360;28;20213;-72
2021/12/19 06:32:52;;;;;;;4.20;2.07;;;;;;;;;;4998564;28;20961;-74
2021/12/19 06:35:18;;;;;;;2.87;1.60;;;;;;;;;;4999397;28;20188;-75
2021/12/19 06:37:44;;;;;;;2.27;1.50;;;;;;;;;;5000577;28;20305;-75
2021/12/19 06:40:10;;;;;;;3.37;1.70;;;;;;;;;;4990496;28;20210;-74
2021/12/19 06:42:35;;;;;;;3.80;1.87;;;;;;;;;;4998562;28;20742;-74
2021/12/19 06:45:01;;;;;;;4.40;1.90;;;;;;;;;;4999314;28;20516;-74
2021/12/19 06:47:26;;;;;;;3.60;1.90;;;;;;;;;;5007915;28;20191;-74
2021/12/19 06:49:51;;;;;;;3.13;1.80;;;;;;;;;;5016220;28;20200;-74
2021/12/19 06:52:16;;;;;;;5.53;2.13;;;;;;;;;;5056537;23;20282;-70
2021/12/19 06:54:42;;;;;;;5.43;2.00;;;;;;;;;;5042122;28;20655;-68
2021/12/19 06:57:07;;;;;;;5.17;2.43;;;;;;;;;;5030948;28;20200;-69
2021/12/19 06:59:32;;;;;;;6.00;2.97;;;;;;;;;;5043437;28;20273;-69
2021/12/19 07:01:57;;;;;;;6.20;2.60;;;;;;;;;;5049716;28;20210;-69
2021/12/19 07:04:22;;;;;;;5.90;2.77;;;;;;;;;;5038999;28;20835;-69
2021/12/19 07:06:47;;;;;;;5.27;2.57;;;;;;;;;;5031166;28;20280;-69
2021/12/19 07:09:13;;;;;;;5.23;2.87;;;;;;;;;;5029395;28;20202;-69
2021/12/19 07:11:38;;;;;;;4.70;2.80;;;;;;;;;;5028125;28;20209;-70
2021/12/19 07:14:03;;;;;;;6.97;3.33;;;;;;;;;;5045876;28;20678;-70
2021/12/19 07:16:28;;;;;;;7.07;4.23;;;;;;;;;;5040344;28;20217;-69
2021/12/19 07:18:53;;;;;;;7.40;3.87;;;;;;;;;;5030709;28;20209;-69
2021/12/19 07:21:19;;;;;;;6.23;3.07;;;;;;;;;;5033335;28;20398;-68
2021/12/19 07:23:44;;;;;;;4.73;2.63;;;;;;;;;;5029952;28;20265;-67
2021/12/19 07:26:11;;;;;;;6.00;2.30;;;;;;;;;;5030403;28;20353;-69
2021/12/19 07:28:36;;;;;;;3.73;2.10;;;;;;;;;;5028399;28;20284;-69
2021/12/19 07:31:02;;;;;;;4.80;2.37;;;;;;;;;;5029727;28;20205;-68
2021/12/19 07:33:27;;;;;;;7.77;2.70;;;;;;;;;;5032405;28;20170;-68
2021/12/19 07:35:53;;;;;;;6.90;3.00;;;;;;;;;;5030000;28;20315;-70
2021/12/19 07:38:26;;;;;;;9.77;3.70;;;;;;;;;;5029468;28;20843;-70
2021/12/19 07:40:54;;;;;;;9.53;4.40;;;;;;;;;;5029026;28;20217;-69
2021/12/19 07:43:19;;;;;;;9.47;5.13;;;;;;;;;;5027377;28;20197;-69
2021/12/19 07:45:44;;;;;;;8.30;4.60;;;;;;;;;;5028246;28;20363;-69
2021/12/19 07:48:10;;;;;;;8.70;5.23;;;;;;;;;;5031019;28;22025;-68
2021/12/19 07:50:35;;;;;;;9.87;5.70;;;;;;;;;;5026973;28;20181;-70
2021/12/19 07:53:01;;;;;;;8.40;5.40;;;;;;;;;;5029066;28;20189;-68
2021/12/19 07:55:27;;;;;;;11.63;6.00;;;;;;;;;;5028113;28;20219;-69
2021/12/19 07:57:52;;;;;;;9.03;6.00;;;;;;;;;;5026445;28;20629;-70
2021/12/19 08:00:19;;;;;;;7.97;5.17;;;;;;;;;;5029401;28;20237;-70
2021/12/19 08:02:45;;;;;;;10.20;6.13;;;;;;;;;;5029498;28;20184;-69
2021/12/19 08:05:11;;;;;;;10.70;5.63;;;;;;;;;;5032531;28;20212;-70
2021/12/19 08:07:38;;;;;;;10.03;5.80;;;;;;;;;;5028494;28;20273;-70
2021/12/19 08:12:38;;;;;;;12.73;5.80;;;;;;;;;;5028989;28;20243;-70
2021/12/19 08:15:04;;;;;;;13.70;7.37;;;;;;;;;;5029136;28;20276;-70
2021/12/19 08:17:31;;;;;;;13.47;6.83;;;;;;;;;;5029921;28;21388;-69
2021/12/19 08:19:56;;;;;;;16.77;8.43;;;;;;;;;;5031171;28;20206;-70
2021/12/19 08:22:22;;;;;;;12.63;8.40;;;;;;;;;;5029805;28;20232;-70
2021/12/19 08:24:49;;;;;;;14.23;7.80;;;;;;;;;;5029057;28;20767;-70
2021/12/19 08:27:14;;;;;;;14.07;8.67;;;;;;;;;;5027943;28;20182;-70
2021/12/19 08:29:40;;;;;;;16.67;8.73;;;;;;;;;;5029240;28;20178;-70
2021/12/19 08:32:05;;;;;;;14.40;8.80;;;;;;;;;;5031787;28;20201;-70
2021/12/19 08:34:30;;;;;;;13.63;8.13;;;;;;;;;;5034376;28;20196;-71
2021/12/19 08:36:56;;;;;;;15.03;8.73;;;;;;;;;;5029983;28;20193;-70
2021/12/19 08:39:21;;;;;;;12.10;7.77;;;;;;;;;;5027270;28;20220;-69
2021/12/19 08:41:46;;;;;;;10.80;7.10;;;;;;;;;;5029061;28;20235;-70
2021/12/19 08:44:11;;;;;;;7.30;5.40;;;;;;;;;;5027723;28;20213;-70
2021/12/19 08:46:38;;;;;;;8.47;4.50;;;;;;;;;;5031123;28;20178;-70
2021/12/19 08:49:04;;;;;;;8.10;4.30;;;;;;;;;;5030320;28;20189;-69
2021/12/19 08:51:31;;;;;;;4.87;3.57;;;;;;;;;;5028010;28;20218;-69
2021/12/19 08:53:56;;;;;;;4.13;3.03;;;;;;;;;;5043358;28;20604;-68
2021/12/19 08:56:22;;;;;;;3.67;2.50;;;;;;;;;;5033210;28;20189;-70
2021/12/19 08:58:47;;;;;;;3.77;1.90;;;;;;;;;;5029189;28;20239;-68
2021/12/19 09:01:12;;;;;;;2.40;1.77;;;;;;;;;;5029001;28;20215;-68
2021/12/19 09:03:38;;;;;;;3.83;2.30;;;;;;;;;;5033316;28;20169;-70
2021/12/19 09:06:03;;;;;;;2.53;1.40;;;;;;;;;;5033912;28;20406;-70
2021/12/19 09:08:29;;;;;;;2.63;1.90;;;;;;;;;;5028508;28;20888;-69
2021/12/19 09:10:55;;;;;;;4.47;3.13;;;;;;;;;;5028480;28;20216;-69
2021/12/19 09:13:20;;;;;;;4.53;2.50;;;;;;;;;;5029995;28;20306;-71
2021/12/19 09:15:45;;;;;;;4.57;3.07;;;;;;;;;;5029581;28;20263;-70
2021/12/19 09:18:10;;;;;;;4.50;2.47;;;;;;;;;;5032357;28;20209;-69
2021/12/19 09:20:36;;;;;;;3.10;2.10;;;;;;;;;;5028319;28;21118;-71
2021/12/19 09:23:01;;;;;;;3.87;2.30;;;;;;;;;;5027735;28;20831;-73
2021/12/19 09:25:26;;;;;;;3.60;2.57;;;;;;;;;;5026998;28;20443;-71
2021/12/19 09:27:51;;;;;;;3.43;2.70;;;;;;;;;;5026809;28;20687;-70
2021/12/19 09:30:17;;;;;;;4.23;2.30;;;;;;;;;;5025962;28;20680;-68
2021/12/19 09:32:42;;;;;;;7.83;3.87;;;;;;;;;;5027821;28;20315;-68
2021/12/19 09:35:07;;;;;;;3.70;2.70;;;;;;;;;;5027413;28;20182;-70
2021/12/19 09:37:35;;;;;;;4.53;2.60;;;;;;;;;;5030612;28;20689;-70
2021/12/19 09:40:03;;;;;;;4.23;2.97;;;;;;;;;;5027524;28;20307;-69
2021/12/19 09:42:33;;;;;;;4.03;2.57;;;;;;;;;;5025725;28;20208;-70
2021/12/19 09:44:59;;;;;;;4.43;2.47;;;;;;;;;;5027679;28;20250;-69
2021/12/19 09:47:24;;;;;;;4.03;2.30;;;;;;;;;;5028618;28;20178;-70
2021/12/19 09:49:51;;;;;;;3.73;2.10;;;;;;;;;;5030543;28;20290;-69
2021/12/19 09:52:16;;;;;;;4.10;2.83;;;;;;;;;;5031302;28;20933;-68
2021/12/19 09:54:41;;;;;;;4.13;2.13;;;;;;;;;;5046146;28;20185;-70
2021/12/19 09:57:06;;;;;;;2.53;2.13;;;;;;;;;;5035567;28;21729;-70
2021/12/19 09:59:32;;;;;;;4.90;2.87;;;;;;;;;;5028371;28;20208;-70
2021/12/19 10:01:57;;;;;;;2.23;2.00;;;;;;;;;;5027422;28;20653;-70
2021/12/19 10:04:38;;;;;;;3.10;1.90;;;;;;;;;;5035920;28;20764;-70
2021/12/19 10:07:11;;;;;;;3.37;2.37;;;;;;;;;;5027953;28;20193;-70
2021/12/19 10:09:37;;;;;;;2.33;1.90;;;;;;;;;;5026643;28;20940;-70
2021/12/19 10:12:36;;;;;;;2.93;2.40;;;;;;;;;;5026282;28;20621;-69
2021/12/19 10:15:01;;;;;;;3.47;2.50;;;;;;;;;;5027083;28;20591;-69
2021/12/19 10:17:26;;;;;;;2.60;2.03;;;;;;;;;;5029855;28;20199;-70
2021/12/19 10:19:52;;;;;;;3.40;2.43;;;;;;;;;;5026173;28;20473;-69
2021/12/19 10:22:34;;;;;;;3.37;2.40;;;;;;;;;;5030504;28;20213;-70
2021/12/19 10:25:17;;;;;;;3.30;2.10;;;;;;;;;;5025104;28;20193;-70
2021/12/19 10:27:42;;;;;;;3.67;1.90;;;;;;;;;;5027210;28;20181;-70
2021/12/19 10:30:26;;;;;;;3.80;2.47;;;;;;;;;;5025802;28;20571;-69
2021/12/19 10:32:55;;;;;;;2.77;2.30;;;;;;;;;;5027001;28;20181;-70
2021/12/19 10:35:31;;;;;;;3.90;2.57;;;;;;;;;;5026509;28;20192;-69
2021/12/19 10:37:57;;;;;;;4.20;2.60;;;;;;;;;;5029761;28;20181;-69
2021/12/19 10:40:23;;;;;;;4.60;2.63;;;;;;;;;;5027408;28;20201;-68
2021/12/19 10:42:50;;;;;;;2.80;2.40;;;;;;;;;;5025856;28;20177;-68
2021/12/19 10:45:32;;;;;;;5.00;3.00;;;;;;;;;;5025309;28;20777;-68
2021/12/19 10:48:24;;;;;;;6.47;3.40;;;;;;;;;;5025831;28;20189;-69
2021/12/19 10:50:51;;;;;;;7.30;3.70;;;;;;;;;;5025024;28;20225;-69
2021/12/19 10:53:17;;;;;;;5.97;3.60;;;;;;;;;;5027159;28;20208;-69
2021/12/19 10:55:43;;;;;;;5.73;3.80;;;;;;;;;;5023297;28;20785;-69
2021/12/19 10:58:19;;;;;;;6.23;3.93;;;;;;;;;;5026578;28;20186;-69
2021/12/19 11:00:53;;;;;;;7.67;4.03;;;;;;;;;;5027005;28;20528;-70
2021/12/19 11:03:32;;;;;;;5.67;3.80;;;;;;;;;;5028129;28;20177;-69
2021/12/19 11:05:57;;;;;;;7.47;3.40;;;;;;;;;;5023805;28;20231;-69
2021/12/19 11:08:28;;;;;;;12.97;4.37;;;;;;;;;;5029647;28;20211;-69
2021/12/19 11:10:53;;;;;;;8.40;4.00;;;;;;;;;;5025534;28;20206;-69
2021/12/19 11:13:19;;;;;;;8.83;3.50;;;;;;;;;;5025805;28;20208;-68
2021/12/19 11:15:44;;;;;;;7.63;4.13;;;;;;;;;;5027584;28;20271;-69
2021/12/19 11:18:09;;;;;;;8.40;4.30;;;;;;;;;;5028930;28;20265;-69
2021/12/19 11:20:34;;;;;;;9.47;3.60;;;;;;;;;;5030419;28;20222;-70
2021/12/19 11:23:00;;;;;;;10.63;5.03;;;;;;;;;;5030504;28;20175;-69
2021/12/19 11:25:25;;;;;;;9.57;3.20;;;;;;;;;;5027672;28;20272;-69
2021/12/19 11:27:51;;;;;;;9.90;3.57;;;;;;;;;;5030153;28;20212;-68
2021/12/19 11:30:18;;;;;;;10.43;4.00;;;;;;;;;;5030746;28;20280;-69
2021/12/19 11:33:02;;;;;;;7.40;3.37;;;;;;;;;;5027780;28;20219;-69
2021/12/19 11:35:31;;;;;;;6.10;2.97;;;;;;;;;;5032979;28;20278;-69
2021/12/19 11:38:00;;;;;;;9.20;2.83;;;;;;;;;;5035872;28;20648;-69
2021/12/19 11:40:30;;;;;;;7.63;3.07;;;;;;;;;;5030845;28;20220;-70
2021/12/19 11:43:09;;;;;;;8.57;3.70;;;;;;;;;;5018997;28;20259;-69
2021/12/19 11:45:42;;;;;;;8.13;3.23;;;;;;;;;;5029063;28;20178;-68
2021/12/19 11:48:14;;;;;;;7.60;3.30;;;;;;;;;;5030191;28;20192;-69
2021/12/19 11:50:46;;;;;;;7.67;3.73;;;;;;;;;;5029812;28;21044;-69
2021/12/19 11:53:12;;;;;;;7.33;3.77;;;;;;;;;;5029758;28;20212;-69
2021/12/19 11:55:38;;;;;;;11.38;4.47;;;;;;;;;;5028689;28;20258;-69
2021/12/19 11:58:11;;;;;;;7.70;3.60;;;;;;;;;;5030721;28;20177;-70
2021/12/19 12:00:39;;;;;;;11.97;4.47;;;;;;;;;;5027991;28;20201;-68
2021/12/19 12:03:14;;;;;;;8.37;3.60;;;;;;;;;;5030158;28;20268;-69
2021/12/19 12:05:43;;;;;;;13.67;4.50;;;;;;;;;;5033787;28;20647;-69
2021/12/19 12:08:09;;;;;;;8.30;4.33;;;;;;;;;;5028103;28;20177;-69
2021/12/19 12:10:53;;;;;;;12.90;4.70;;;;;;;;;;5029759;28;20174;-67
2021/12/19 12:13:24;;;;;;;4.50;3.50;;;;;;;;;;5017843;28;20312;-69
2021/12/19 12:15:52;;;;;;;8.93;4.13;;;;;;;;;;5028022;28;20177;-69
2021/12/19 12:18:30;;;;;;;8.50;4.17;;;;;;;;;;5032237;28;20186;-69
2021/12/19 12:20:56;;;;;;;6.63;4.10;;;;;;;;;;5029521;28;20213;-69
2021/12/19 12:23:27;;;;;;;11.53;4.80;;;;;;;;;;5028047;28;20178;-67
2021/12/19 12:25:54;;;;;;;8.27;3.93;;;;;;;;;;5029842;28;20182;-68
2021/12/19 12:28:20;;;;;;;7.70;3.53;;;;;;;;;;5028523;28;20190;-70
2021/12/19 12:30:50;;;;;;;9.17;4.07;;;;;;;;;;5028849;28;20208;-70
2021/12/19 12:33:17;;;;;;;7.10;3.90;;;;;;;;;;5028736;28;20571;-70
2021/12/19 12:35:45;;;;;;;8.27;3.33;;;;;;;;;;5032038;28;20190;-69
2021/12/19 12:38:11;;;;;;;7.83;4.13;;;;;;;;;;5029405;28;20185;-70
2021/12/19 12:40:57;;;;;;;7.10;3.00;;;;;;;;;;5028499;28;20263;-68
2021/12/19 12:43:24;;;;;;;3.23;2.23;;;;;;;;;;5026991;28;20173;-68
2021/12/19 12:45:51;;;;;;;5.27;2.20;;;;;;;;;;5036180;28;20193;-69
2021/12/19 12:48:30;;;;;;;2.83;1.63;;;;;;;;;;5029719;28;20208;-70
2021/12/19 12:50:55;;;;;;;3.07;1.67;;;;;;;;;;5041950;23;20220;-75
2021/12/19 12:53:47;;;;;;;2.73;1.40;;;;;;;;;;5028658;28;20194;-74
2021/12/19 12:56:15;;;;;;;2.33;1.43;;;;;;;;;;5023890;28;20198;-75
2021/12/19 12:58:42;;;;;;;5.03;1.73;;;;;;;;;;5030052;28;20614;-74
2021/12/19 13:01:11;;;;;;;5.20;2.10;;;;;;;;;;5025749;28;20216;-75
2021/12/19 13:03:36;;;;;;;3.37;2.00;;;;;;;;;;5012733;28;20207;-75
2021/12/19 13:06:02;;;;;;;5.40;1.80;;;;;;;;;;5013417;28;20701;-74
2021/12/19 13:08:28;;;;;;;3.67;2.13;;;;;;;;;;5011607;28;20229;-77
2021/12/19 13:10:53;;;;;;;4.30;2.30;;;;;;;;;;5006307;28;20577;-77
2021/12/19 13:13:18;;;;;;;6.53;2.10;;;;;;;;;;5010972;28;20191;-74
2021/12/19 13:15:44;;;;;;;4.07;2.23;;;;;;;;;;5012013;28;20667;-76
2021/12/19 13:18:09;;;;;;;5.50;3.20;;;;;;;;;;5012824;28;20190;-76
2021/12/19 13:20:36;;;;;;;7.10;2.47;;;;;;;;;;5013822;28;20663;-76
2021/12/19 13:23:03;;;;;;;5.47;3.03;;;;;;;;;;5011525;28;20205;-76
2021/12/19 13:25:38;;;;;;;7.50;2.60;;;;;;;;;;5010320;28;20225;-76
2021/12/19 13:28:05;;;;;;;8.37;3.20;;;;;;;;;;5011048;28;20528;-76
2021/12/19 13:30:31;;;;;;;5.30;3.43;;;;;;;;;;5010159;28;20895;-76
2021/12/19 13:32:58;;;;;;;5.33;2.93;;;;;;;;;;5010305;28;20213;-76
2021/12/19 13:35:28;;;;;;;4.13;2.60;;;;;;;;;;5010630;28;20320;-74
2021/12/19 13:37:55;;;;;;;5.43;2.77;;;;;;;;;;5009339;28;20182;-76
2021/12/19 13:40:22;;;;;;;9.13;3.07;;;;;;;;;;5016379;28;20209;-76
2021/12/19 13:42:53;;;;;;;5.73;2.87;;;;;;;;;;5013386;28;20580;-76
2021/12/19 13:45:21;;;;;;;4.67;3.40;;;;;;;;;;5012110;28;20186;-76
2021/12/19 13:47:46;;;;;;;6.13;2.90;;;;;;;;;;5010532;28;20502;-76
2021/12/19 13:50:12;;;;;;;4.63;3.13;;;;;;;;;;5018275;28;20190;-76
2021/12/19 13:52:37;;;;;;;8.20;3.30;;;;;;;;;;5007154;28;20505;-76
2021/12/19 13:55:10;;;;;;;6.73;3.13;;;;;;;;;;5008408;28;20273;-76
2021/12/19 13:57:35;;;;;;;7.20;4.43;;;;;;;;;;5010409;28;20723;-77
2021/12/19 14:00:01;;;;;;;6.63;3.33;;;;;;;;;;5011147;28;20217;-76
2021/12/19 14:02:34;;;;;;;7.23;3.13;;;;;;;;;;5010438;28;20309;-77
2021/12/19 14:04:59;;;;;;;5.30;3.30;;;;;;;;;;5014715;28;20243;-75
2021/12/19 14:07:28;;;;;;;7.70;3.73;;;;;;;;;;5010221;28;20191;-75
2021/12/19 14:09:57;;;;;;;6.33;3.70;;;;;;;;;;5008028;28;20265;-76
2021/12/19 14:12:52;;;;;;;8.80;3.60;;;;;;;;;;5009178;28;20199;-77
2021/12/19 14:15:11;;;;;;;6.70;3.13;;;;;;;;;;5010600;28;20216;-74
2021/12/19 14:17:36;;;;;;;6.60;3.90;;;;;;;;;;5013976;28;21421;-74
2021/12/19 14:20:03;;;;;;;7.83;3.57;;;;;;;;;;5008811;28;20214;-74
2021/12/19 14:22:28;;;;;;;8.93;3.80;;;;;;;;;;5008984;28;20251;-75
2021/12/19 14:24:57;;;;;;;6.87;3.93;;;;;;;;;;5009939;28;20219;-74
2021/12/19 14:27:27;;;;;;;11.10;3.60;;;;;;;;;;5010560;28;20188;-74
2021/12/19 14:29:55;;;;;;;7.10;3.30;;;;;;;;;;5023392;28;20207;-75
2021/12/19 14:32:20;;;;;;;5.67;3.60;;;;;;;;;;5009681;28;20219;-75
2021/12/19 14:34:47;;;;;;;10.40;3.73;;;;;;;;;;5012665;28;20178;-75
2021/12/19 14:37:15;;;;;;;6.43;2.77;;;;;;;;;;5030499;28;20556;-74
2021/12/19 14:39:41;;;;;;;7.60;4.30;;;;;;;;;;5027201;28;20248;-75
2021/12/19 14:42:07;;;;;;;10.17;4.17;;;;;;;;;;5032623;28;20202;-75
2021/12/19 14:44:32;;;;;;;9.33;4.20;;;;;;;;;;5025541;28;20261;-75
2021/12/19 14:46:57;;;;;;;7.50;3.87;;;;;;;;;;5031183;28;20722;-74
2021/12/19 14:49:23;;;;;;;8.83;3.63;;;;;;;;;;5031311;28;20182;-75
2021/12/19 14:51:56;;;;;;;8.23;3.50;;;;;;;;;;5011290;28;20213;-75
2021/12/19 14:54:24;;;;;;;5.30;3.47;;;;;;;;;;5013000;28;20631;-75
2021/12/19 14:56:50;;;;;;;10.40;3.97;;;;;;;;;;5013175;28;20286;-76
2021/12/19 14:59:17;;;;;;;6.70;3.50;;;;;;;;;;5013176;28;20234;-76
2021/12/19 15:01:42;;;;;;;6.90;3.80;;;;;;;;;;5014814;28;20217;-76
2021/12/19 15:04:08;;;;;;;6.30;3.73;;;;;;;;;;5013785;28;20182;-76
2021/12/19 15:06:39;;;;;;;9.73;3.60;;;;;;;;;;5015166;28;20183;-77
2021/12/19 15:09:07;;;;;;;9.77;3.97;;;;;;;;;;5012476;28;20565;-74
2021/12/19 15:11:33;;;;;;;6.20;3.37;;;;;;;;;;5012177;28;20293;-74
2021/12/19 15:13:58;;;;;;;8.10;3.70;;;;;;;;;;5011267;28;20223;-74
2021/12/19 15:16:23;;;;;;;8.63;4.60;;;;;;;;;;5013265;28;20314;-75
2021/12/19 15:18:48;;;;;;;9.60;3.77;;;;;;;;;;5013554;28;20894;-74
2021/12/19 15:21:15;;;;;;;5.23;3.23;;;;;;;;;;5012652;28;20225;-77
2021/12/19 15:23:43;;;;;;;7.03;4.20;;;;;;;;;;5013269;28;20190;-75
2021/12/19 15:26:15;;;;;;;9.90;4.00;;;;;;;;;;5012410;28;20258;-75
2021/12/19 15:28:46;;;;;;;8.73;4.50;;;;;;;;;;5012694;28;20194;-76
2021/12/19 15:31:11;;;;;;;8.77;3.90;;;;;;;;;;5013039;28;20286;-76
2021/12/19 15:33:37;;;;;;;6.47;3.73;;;;;;;;;;5008550;28;20190;-76
2021/12/19 15:36:02;;;;;;;8.87;4.30;;;;;;;;;;5013046;28;20190;-75